Test Airport (2M8)
Anytown, MD
Field Elevation: 100
Lat: 35°10.10N  Long: 104°10.10W
CTAF/Unicom Freq: 122.8000
   
     For Weather-by-Phone, call 901-873-0903
Weather Advisories
2018-01-21   18:27 Z
Altimeter 30.05" Hg
Wind 190° @ 12 KT
Gusts 15 KT
Visibility 10 SM
Ceiling FEW027
Temperature 19° C (66° F)
Dewpoint 17° C (63° F)
Relative Humidity 84%
Density Altitude --
Condensation Altitude 1,600 feet
Wind and Runways
Indicated Runway = 27
Headwind = 2 kt
Crosswind = 12 kt
History
 
 
 
More Info
NOAA Forecast
 
 
About Us
Belfort Instrument
 
 
FAA Disclaimer: The data displayed is for advisory purposes only and is not to be used for flight planning or operations. For official data, please call 901-873-0903 to hear the current automated AWOS voice message.
  METAR 2M8 211827Z AUTO 19012G15KT 10 SM FEW027 19/17 A3005